Time;durP1;ratioP1;P1;durP2;ratioP2;P2;SDS_P1;SDS_P2;PMS_P1;PMS_P2;Temp;Humidity;BMP_temperature;BMP_pressure;BME280_temperature;BME280_humidity;BME280_pressure;Samples;Min_cycle;Max_cycle;Signal;HPM_P1;HPM_P2
2023/01/03 00:00:00;;;;;;;1.6;1.6;;;;;;;7.6;100.0;102340;;;;
2023/01/03 00:01:05;;;;;;;1.6;1.6;;;;;;;7.6;100.0;102340;;;;
2023/01/03 00:02:00;;;;;;;1.6;1.6;;;;;;;7.4;100.0;102340;;;;
2023/01/03 00:03:00;;;;;;;1.6;1.6;;;;;;;7.4;100.0;102340;;;;
2023/01/03 00:04:00;;;;;;;1.6;1.6;;;;;;;7.4;100.0;102340;;;;
2023/01/03 00:05:00;;;;;;;1.6;1.6;;;;;;;7.4;100.0;102340;;;;
2023/01/03 00:06:00;;;;;;;1.6;1.6;;;;;;;7.5;100.0;102340;;;;
2023/01/03 00:07:00;;;;;;;1.6;1.6;;;;;;;7.5;100.0;102340;;;;
2023/01/03 00:08:00;;;;;;;1.6;1.6;;;;;;;7.5;100.0;102340;;;;
2023/01/03 00:09:01;;;;;;;1.6;1.6;;;;;;;7.5;100.0;102340;;;;
2023/01/03 00:10:01;;;;;;;1.6;1.6;;;;;;;7.6;100.0;102340;;;;
2023/01/03 00:11:00;;;;;;;1.2;1.2;;;;;;;7.6;100.0;102340;;;;
2023/01/03 00:13:00;;;;;;;1.2;1.2;;;;;;;7.4;100.0;102340;;;;
2023/01/03 00:14:00;;;;;;;1.2;1.2;;;;;;;7.4;100.0;102350;;;;
2023/01/03 00:15:00;;;;;;;1.2;1.2;;;;;;;7.4;100.0;102350;;;;
2023/01/03 00:16:00;;;;;;;1.2;1.2;;;;;;;7.5;100.0;102340;;;;
2023/01/03 00:17:01;;;;;;;1.2;1.2;;;;;;;7.5;100.0;102340;;;;
2023/01/03 00:18:00;;;;;;;1.2;1.2;;;;;;;7.3;100.0;102340;;;;
2023/01/03 00:19:04;;;;;;;1.2;1.2;;;;;;;7.3;100.0;102340;;;;
2023/01/03 00:20:00;;;;;;;1.2;1.2;;;;;;;7.2;100.0;102340;;;;
2023/01/03 00:21:03;;;;;;;1.2;1.2;;;;;;;7.2;100.0;102340;;;;
2023/01/03 00:22:00;;;;;;;1.2;1.2;;;;;;;7.3;100.0;102340;;;;
2023/01/03 00:23:01;;;;;;;1.2;1.2;;;;;;;7.3;100.0;102340;;;;
2023/01/03 00:24:00;;;;;;;1.2;1.2;;;;;;;7.2;100.0;102340;;;;
2023/01/03 00:25:00;;;;;;;1.2;1.2;;;;;;;7.2;100.0;102340;;;;
2023/01/03 00:26:07;;;;;;;1.2;1.2;;;;;;;7.1;100.0;102340;;;;
2023/01/03 00:27:00;;;;;;;1.2;1.2;;;;;;;7.1;100.0;102340;;;;
2023/01/03 00:28:00;;;;;;;1.2;1.2;;;;;;;7.1;100.0;102340;;;;
2023/01/03 00:29:00;;;;;;;1.2;1.2;;;;;;;7.1;100.0;102340;;;;
2023/01/03 00:30:00;;;;;;;1.2;1.2;;;;;;;7.1;100.0;102340;;;;
2023/01/03 00:31:04;;;;;;;1.8;1.8;;;;;;;7.1;100.0;102340;;;;
2023/01/03 00:32:00;;;;;;;1.8;1.8;;;;;;;7.1;100.0;102340;;;;
2023/01/03 00:33:00;;;;;;;1.8;1.8;;;;;;;7.1;100.0;102340;;;;
2023/01/03 00:34:00;;;;;;;1.8;1.8;;;;;;;7.0;100.0;102340;;;;
2023/01/03 00:35:05;;;;;;;1.8;1.8;;;;;;;7.0;100.0;102340;;;;
2023/01/03 00:36:01;;;;;;;1.8;1.8;;;;;;;6.9;100.0;102340;;;;
2023/01/03 00:37:00;;;;;;;1.8;1.8;;;;;;;6.9;100.0;102340;;;;
2023/01/03 00:38:00;;;;;;;1.8;1.8;;;;;;;7.0;100.0;102340;;;;
2023/01/03 00:39:00;;;;;;;1.8;1.8;;;;;;;7.0;100.0;102340;;;;
2023/01/03 00:40:00;;;;;;;1.8;1.8;;;;;;;6.9;100.0;102340;;;;
2023/01/03 00:41:04;;;;;;;1.8;1.8;;;;;;;6.9;100.0;102340;;;;
2023/01/03 00:42:00;;;;;;;1.8;1.8;;;;;;;6.8;100.0;102340;;;;
2023/01/03 00:44:00;;;;;;;1.8;1.8;;;;;;;6.7;100.0;102340;;;;
2023/01/03 00:45:00;;;;;;;1.8;1.8;;;;;;;6.7;100.0;102340;;;;
2023/01/03 00:46:01;;;;;;;1.8;1.8;;;;;;;6.6;100.0;102350;;;;
2023/01/03 00:47:00;;;;;;;1.8;1.8;;;;;;;6.6;100.0;102350;;;;
2023/01/03 00:48:00;;;;;;;1.8;1.8;;;;;;;6.6;100.0;102340;;;;
2023/01/03 00:49:00;;;;;;;1.8;1.8;;;;;;;6.6;100.0;102340;;;;
2023/01/03 00:50:00;;;;;;;1.9;1.9;;;;;;;6.6;100.0;102340;;;;
2023/01/03 00:51:05;;;;;;;1.9;1.9;;;;;;;6.6;100.0;102340;;;;
2023/01/03 00:52:00;;;;;;;1.9;1.9;;;;;;;6.5;100.0;102350;;;;
2023/01/03 00:53:00;;;;;;;1.9;1.9;;;;;;;6.5;100.0;102350;;;;
2023/01/03 00:54:01;;;;;;;1.9;1.9;;;;;;;6.5;100.0;102340;;;;
2023/01/03 00:55:00;;;;;;;1.9;1.9;;;;;;;6.5;100.0;102340;;;;
2023/01/03 00:56:02;;;;;;;1.9;1.9;;;;;;;6.4;100.0;102350;;;;
2023/01/03 00:57:00;;;;;;;1.9;1.9;;;;;;;6.4;100.0;102350;;;;
2023/01/03 00:58:00;;;;;;;1.9;1.9;;;;;;;6.4;100.0;102350;;;;
2023/01/03 00:59:00;;;;;;;1.9;1.9;;;;;;;6.4;100.0;102350;;;;
2023/01/03 01:00:00;;;;;;;1.9;1.9;;;;;;;6.3;100.0;102350;;;;
2023/01/03 01:01:08;;;;;;;1.9;1.9;;;;;;;6.3;100.0;102350;;;;
2023/01/03 01:02:00;;;;;;;1.9;1.9;;;;;;;6.3;100.0;102350;;;;
2023/01/03 01:03:00;;;;;;;1.9;1.9;;;;;;;6.3;100.0;102350;;;;
2023/01/03 01:04:05;;;;;;;1.9;1.9;;;;;;;6.3;100.0;102350;;;;
2023/01/03 01:05:00;;;;;;;1.9;1.9;;;;;;;6.3;100.0;102350;;;;
2023/01/03 01:06:08;;;;;;;1.9;1.9;;;;;;;6.3;100.0;102360;;;;
2023/01/03 01:07:02;;;;;;;1.9;1.9;;;;;;;6.3;100.0;102360;;;;
2023/01/03 01:08:00;;;;;;;1.9;1.9;;;;;;;6.3;100.0;102360;;;;
2023/01/03 01:09:01;;;;;;;1.9;1.9;;;;;;;6.3;100.0;102360;;;;
2023/01/03 01:10:00;;;;;;;1.4;1.4;;;;;;;6.3;100.0;102360;;;;
2023/01/03 01:11:01;;;;;;;1.4;1.4;;;;;;;6.3;100.0;102360;;;;
2023/01/03 01:12:00;;;;;;;1.4;1.4;;;;;;;6.2;100.0;102360;;;;
2023/01/03 01:13:00;;;;;;;1.4;1.4;;;;;;;6.2;100.0;102360;;;;
2023/01/03 01:14:00;;;;;;;1.4;1.4;;;;;;;6.1;100.0;102370;;;;
2023/01/03 01:15:00;;;;;;;1.4;1.4;;;;;;;6.1;100.0;102370;;;;
2023/01/03 01:16:01;;;;;;;1.4;1.4;;;;;;;6.1;100.0;102370;;;;
2023/01/03 01:17:01;;;;;;;1.4;1.4;;;;;;;6.1;100.0;102370;;;;
2023/01/03 01:18:00;;;;;;;1.4;1.4;;;;;;;6.2;100.0;102360;;;;
2023/01/03 01:19:00;;;;;;;1.4;1.4;;;;;;;6.2;100.0;102360;;;;
2023/01/03 01:20:00;;;;;;;1.4;1.4;;;;;;;6.1;100.0;102370;;;;
2023/01/03 01:21:03;;;;;;;1.4;1.4;;;;;;;6.1;100.0;102370;;;;
2023/01/03 01:22:00;;;;;;;1.4;1.4;;;;;;;6.1;100.0;102370;;;;
2023/01/03 01:23:00;;;;;;;1.4;1.4;;;;;;;6.1;100.0;102370;;;;
2023/01/03 01:24:00;;;;;;;1.4;1.4;;;;;;;6.0;100.0;102380;;;;
2023/01/03 01:25:00;;;;;;;1.4;1.4;;;;;;;6.0;100.0;102380;;;;
2023/01/03 01:26:01;;;;;;;1.4;1.4;;;;;;;6.0;100.0;102380;;;;
2023/01/03 01:27:00;;;;;;;1.4;1.4;;;;;;;6.0;100.0;102380;;;;
2023/01/03 01:28:00;;;;;;;1.4;1.4;;;;;;;6.0;100.0;102380;;;;
2023/01/03 01:29:00;;;;;;;1.4;1.4;;;;;;;6.0;100.0;102380;;;;
2023/01/03 01:30:00;;;;;;;1.6;1.6;;;;;;;5.9;100.0;102390;;;;
2023/01/03 01:31:01;;;;;;;1.6;1.6;;;;;;;5.9;100.0;102390;;;;
2023/01/03 01:32:00;;;;;;;1.6;1.6;;;;;;;5.8;100.0;102390;;;;
2023/01/03 01:33:00;;;;;;;1.6;1.6;;;;;;;5.8;100.0;102390;;;;
2023/01/03 01:34:00;;;;;;;1.6;1.6;;;;;;;5.8;100.0;102390;;;;
2023/01/03 01:35:00;;;;;;;1.6;1.6;;;;;;;5.8;100.0;102390;;;;
2023/01/03 01:36:09;;;;;;;1.6;1.6;;;;;;;5.8;100.0;102390;;;;
2023/01/03 01:37:00;;;;;;;1.6;1.6;;;;;;;5.8;100.0;102390;;;;
2023/01/03 01:38:00;;;;;;;1.6;1.6;;;;;;;5.8;100.0;102400;;;;
2023/01/03 01:39:01;;;;;;;1.6;1.6;;;;;;;5.8;100.0;102400;;;;
2023/01/03 01:40:00;;;;;;;1.6;1.6;;;;;;;5.9;100.0;102400;;;;
2023/01/03 01:41:00;;;;;;;1.6;1.6;;;;;;;5.9;100.0;102400;;;;
2023/01/03 01:45:01;;;;;;;1.6;1.6;;;;;;;5.9;100.0;102400;;;;
2023/01/03 01:46:03;;;;;;;1.6;1.6;;;;;;;5.8;100.0;102400;;;;
2023/01/03 01:47:01;;;;;;;1.6;1.6;;;;;;;5.8;100.0;102400;;;;
2023/01/03 01:48:03;;;;;;;1.6;1.6;;;;;;;5.8;100.0;102400;;;;
2023/01/03 01:49:05;;;;;;;1.6;1.6;;;;;;;5.8;100.0;102400;;;;
2023/01/03 01:50:04;;;;;;;1.5;1.5;;;;;;;5.8;100.0;102410;;;;
2023/01/03 01:51:01;;;;;;;1.5;1.5;;;;;;;5.8;100.0;102410;;;;
2023/01/03 01:52:00;;;;;;;1.5;1.5;;;;;;;5.5;100.0;102410;;;;
2023/01/03 01:53:06;;;;;;;1.5;1.5;;;;;;;5.5;100.0;102410;;;;
2023/01/03 01:54:01;;;;;;;1.5;1.5;;;;;;;5.5;100.0;102410;;;;
2023/01/03 01:55:01;;;;;;;1.5;1.5;;;;;;;5.5;100.0;102410;;;;
2023/01/03 01:56:00;;;;;;;1.5;1.5;;;;;;;5.5;100.0;102410;;;;
2023/01/03 01:57:00;;;;;;;1.5;1.5;;;;;;;5.5;100.0;102410;;;;
2023/01/03 01:58:01;;;;;;;1.5;1.5;;;;;;;5.6;100.0;102410;;;;
2023/01/03 01:59:00;;;;;;;1.5;1.5;;;;;;;5.6;100.0;102410;;;;
2023/01/03 02:00:00;;;;;;;1.5;1.5;;;;;;;5.7;100.0;102420;;;;
2023/01/03 02:01:02;;;;;;;1.5;1.5;;;;;;;5.7;100.0;102420;;;;
2023/01/03 02:02:00;;;;;;;1.5;1.5;;;;;;;5.7;100.0;102420;;;;
2023/01/03 02:03:00;;;;;;;1.5;1.5;;;;;;;5.7;100.0;102420;;;;
2023/01/03 02:04:06;;;;;;;1.5;1.5;;;;;;;5.7;100.0;102420;;;;
2023/01/03 02:05:03;;;;;;;1.5;1.5;;;;;;;5.7;100.0;102420;;;;
2023/01/03 02:06:01;;;;;;;1.5;1.5;;;;;;;5.6;100.0;102420;;;;
2023/01/03 02:07:01;;;;;;;1.5;1.5;;;;;;;5.6;100.0;102420;;;;
2023/01/03 02:08:00;;;;;;;1.5;1.5;;;;;;;5.5;100.0;102420;;;;
2023/01/03 02:09:00;;;;;;;1.5;1.5;;;;;;;5.5;100.0;102420;;;;
2023/01/03 02:10:00;;;;;;;1.9;1.9;;;;;;;5.5;100.0;102420;;;;
2023/01/03 02:11:00;;;;;;;1.9;1.9;;;;;;;5.5;100.0;102420;;;;
2023/01/03 02:13:06;;;;;;;1.9;1.9;;;;;;;5.4;100.0;102420;;;;
2023/01/03 02:14:10;;;;;;;1.9;1.9;;;;;;;5.4;100.0;102420;;;;
2023/01/03 02:15:07;;;;;;;1.9;1.9;;;;;;;5.4;100.0;102420;;;;
2023/01/03 02:16:06;;;;;;;1.9;1.9;;;;;;;5.3;100.0;102420;;;;
2023/01/03 02:17:03;;;;;;;1.9;1.9;;;;;;;5.3;100.0;102420;;;;
2023/01/03 02:18:01;;;;;;;1.9;1.9;;;;;;;5.4;100.0;102420;;;;
2023/01/03 02:19:10;;;;;;;1.9;1.9;;;;;;;5.4;100.0;102420;;;;
2023/01/03 02:20:05;;;;;;;1.9;1.9;;;;;;;5.3;100.0;102420;;;;
2023/01/03 02:21:09;;;;;;;1.9;1.9;;;;;;;5.3;100.0;102420;;;;
2023/01/03 02:22:10;;;;;;;1.9;1.9;;;;;;;5.2;100.0;102420;;;;
2023/01/03 02:23:07;;;;;;;1.9;1.9;;;;;;;5.2;100.0;102420;;;;
2023/01/03 02:24:10;;;;;;;1.9;1.9;;;;;;;5.3;100.0;102420;;;;
2023/01/03 02:25:10;;;;;;;1.9;1.9;;;;;;;5.3;100.0;102420;;;;
2023/01/03 02:26:10;;;;;;;1.9;1.9;;;;;;;5.3;100.0;102420;;;;
2023/01/03 02:27:10;;;;;;;1.9;1.9;;;;;;;5.3;100.0;102420;;;;
2023/01/03 02:28:10;;;;;;;1.9;1.9;;;;;;;5.2;100.0;102420;;;;
2023/01/03 02:29:10;;;;;;;1.9;1.9;;;;;;;5.2;100.0;102420;;;;
2023/01/03 02:30:07;;;;;;;2.0;2.0;;;;;;;5.2;100.0;102420;;;;
2023/01/03 02:31:10;;;;;;;2.0;2.0;;;;;;;5.2;100.0;102420;;;;
2023/01/03 02:32:10;;;;;;;2.0;2.0;;;;;;;5.2;100.0;102420;;;;
2023/01/03 02:33:06;;;;;;;2.0;2.0;;;;;;;5.2;100.0;102420;;;;
2023/01/03 02:34:05;;;;;;;2.0;2.0;;;;;;;5.0;100.0;102410;;;;
2023/01/03 02:35:00;;;;;;;2.0;2.0;;;;;;;5.0;100.0;102410;;;;
2023/01/03 02:36:05;;;;;;;2.0;2.0;;;;;;;5.1;100.0;102410;;;;
2023/01/03 02:37:10;;;;;;;2.0;2.0;;;;;;;5.1;100.0;102410;;;;
2023/01/03 02:38:08;;;;;;;2.0;2.0;;;;;;;4.9;100.0;102410;;;;
2023/01/03 02:39:10;;;;;;;2.0;2.0;;;;;;;4.9;100.0;102410;;;;
2023/01/03 02:40:08;;;;;;;2.0;2.0;;;;;;;4.9;100.0;102420;;;;
2023/01/03 02:41:00;;;;;;;2.0;2.0;;;;;;;4.9;100.0;102420;;;;
2023/01/03 02:43:07;;;;;;;2.0;2.0;;;;;;;4.9;100.0;102420;;;;
2023/01/03 02:44:04;;;;;;;2.0;2.0;;;;;;;5.0;100.0;102420;;;;
2023/01/03 02:45:06;;;;;;;2.0;2.0;;;;;;;5.0;100.0;102420;;;;
2023/01/03 02:46:00;;;;;;;2.0;2.0;;;;;;;5.0;100.0;102410;;;;
2023/01/03 02:47:04;;;;;;;2.0;2.0;;;;;;;5.0;100.0;102410;;;;
2023/01/03 02:48:02;;;;;;;2.0;2.0;;;;;;;4.9;100.0;102410;;;;
2023/01/03 02:49:05;;;;;;;2.0;2.0;;;;;;;4.9;100.0;102410;;;;
2023/01/03 02:50:01;;;;;;;2.0;2.0;;;;;;;4.9;100.0;102420;;;;
2023/01/03 02:51:02;;;;;;;2.0;2.0;;;;;;;4.9;100.0;102420;;;;
2023/01/03 02:52:03;;;;;;;2.0;2.0;;;;;;;4.9;100.0;102420;;;;
2023/01/03 02:53:02;;;;;;;2.0;2.0;;;;;;;4.9;100.0;102420;;;;
2023/01/03 02:54:01;;;;;;;2.0;2.0;;;;;;;4.9;100.0;102410;;;;
2023/01/03 02:55:07;;;;;;;2.0;2.0;;;;;;;4.9;100.0;102410;;;;
2023/01/03 02:56:04;;;;;;;2.0;2.0;;;;;;;4.8;100.0;102410;;;;
2023/01/03 02:57:03;;;;;;;2.0;2.0;;;;;;;4.8;100.0;102410;;;;
2023/01/03 02:58:03;;;;;;;2.0;2.0;;;;;;;4.8;100.0;102410;;;;
2023/01/03 02:59:03;;;;;;;2.0;2.0;;;;;;;4.8;100.0;102410;;;;
2023/01/03 03:00:06;;;;;;;2.0;2.0;;;;;;;4.7;100.0;102410;;;;
2023/01/03 03:01:01;;;;;;;2.0;2.0;;;;;;;4.7;100.0;102410;;;;
2023/01/03 03:02:02;;;;;;;2.0;2.0;;;;;;;4.8;100.0;102410;;;;
2023/01/03 03:03:03;;;;;;;2.0;2.0;;;;;;;4.8;100.0;102410;;;;
2023/01/03 03:04:01;;;;;;;2.0;2.0;;;;;;;4.6;100.0;102410;;;;
2023/01/03 03:05:01;;;;;;;2.0;2.0;;;;;;;4.6;100.0;102410;;;;
2023/01/03 03:06:06;;;;;;;2.0;2.0;;;;;;;4.6;100.0;102410;;;;
2023/01/03 03:07:07;;;;;;;2.0;2.0;;;;;;;4.6;100.0;102410;;;;
2023/01/03 03:08:00;;;;;;;2.0;2.0;;;;;;;4.5;100.0;102420;;;;
2023/01/03 03:09:00;;;;;;;2.0;2.0;;;;;;;4.5;100.0;102420;;;;
2023/01/03 03:14:05;;;;;;;3.0;2.9;;;;;;;4.5;100.0;102410;;;;
2023/01/03 03:15:01;;;;;;;3.0;2.9;;;;;;;4.5;100.0;102410;;;;
2023/01/03 03:16:03;;;;;;;3.0;2.9;;;;;;;4.6;100.0;102410;;;;
2023/01/03 03:17:03;;;;;;;3.0;2.9;;;;;;;4.6;100.0;102410;;;;
2023/01/03 03:18:05;;;;;;;3.0;2.9;;;;;;;4.5;100.0;102410;;;;
2023/01/03 03:19:01;;;;;;;3.0;2.9;;;;;;;4.5;100.0;102410;;;;
2023/01/03 03:25:03;;;;;;;3.0;2.9;;;;;;;4.5;100.0;102410;;;;
2023/01/03 03:26:08;;;;;;;3.0;2.9;;;;;;;4.5;100.0;102410;;;;
2023/01/03 03:28:33;;;;;;;3.0;2.9;;;;;;;4.5;100.0;102410;;;;
2023/01/03 03:29:03;;;;;;;3.0;2.9;;;;;;;4.5;100.0;102410;;;;
2023/01/03 03:30:02;;;;;;;1.8;1.8;;;;;;;4.4;100.0;102410;;;;
2023/01/03 03:31:03;;;;;;;1.8;1.8;;;;;;;4.4;100.0;102410;;;;
2023/01/03 03:32:00;;;;;;;1.8;1.8;;;;;;;4.4;100.0;102420;;;;
2023/01/03 03:33:04;;;;;;;1.8;1.8;;;;;;;4.4;100.0;102420;;;;
2023/01/03 03:34:09;;;;;;;1.8;1.8;;;;;;;4.4;100.0;102420;;;;
2023/01/03 03:35:02;;;;;;;1.8;1.8;;;;;;;4.4;100.0;102420;;;;
2023/01/03 03:36:07;;;;;;;1.8;1.8;;;;;;;4.3;100.0;102410;;;;
2023/01/03 03:37:01;;;;;;;1.8;1.8;;;;;;;4.3;100.0;102410;;;;
2023/01/03 03:38:03;;;;;;;1.8;1.8;;;;;;;4.2;100.0;102410;;;;
2023/01/03 03:39:00;;;;;;;1.8;1.8;;;;;;;4.2;100.0;102410;;;;
2023/01/03 03:45:04;;;;;;;1.8;1.8;;;;;;;4.2;100.0;102420;;;;
2023/01/03 03:46:06;;;;;;;1.8;1.8;;;;;;;4.2;100.0;102420;;;;
2023/01/03 03:47:05;;;;;;;1.8;1.8;;;;;;;4.2;100.0;102420;;;;
2023/01/03 03:48:07;;;;;;;1.8;1.8;;;;;;;4.1;100.0;102420;;;;
2023/01/03 03:50:04;;;;;;;2.2;2.2;;;;;;;4.1;100.0;102420;;;;
2023/01/03 03:51:06;;;;;;;2.2;2.2;;;;;;;4.1;100.0;102420;;;;
2023/01/03 03:52:01;;;;;;;2.2;2.2;;;;;;;4.2;100.0;102410;;;;
2023/01/03 03:53:04;;;;;;;2.2;2.2;;;;;;;4.2;100.0;102410;;;;
2023/01/03 03:54:03;;;;;;;2.2;2.2;;;;;;;4.1;100.0;102410;;;;
2023/01/03 03:55:02;;;;;;;2.2;2.2;;;;;;;4.1;100.0;102410;;;;
2023/01/03 03:56:04;;;;;;;2.2;2.2;;;;;;;4.1;100.0;102410;;;;
2023/01/03 03:57:05;;;;;;;2.2;2.2;;;;;;;4.1;100.0;102410;;;;
2023/01/03 03:58:03;;;;;;;2.2;2.2;;;;;;;4.2;100.0;102410;;;;
2023/01/03 03:59:04;;;;;;;2.2;2.2;;;;;;;4.2;100.0;102410;;;;
2023/01/03 04:00:03;;;;;;;2.2;2.2;;;;;;;4.1;100.0;102420;;;;
2023/01/03 04:01:01;;;;;;;2.2;2.2;;;;;;;4.1;100.0;102420;;;;
2023/01/03 04:02:02;;;;;;;2.2;2.2;;;;;;;4.2;100.0;102420;;;;
2023/01/03 04:03:01;;;;;;;2.2;2.2;;;;;;;4.2;100.0;102420;;;;
2023/01/03 04:04:03;;;;;;;2.2;2.2;;;;;;;4.1;100.0;102420;;;;
2023/01/03 04:05:02;;;;;;;2.2;2.2;;;;;;;4.1;100.0;102420;;;;
2023/01/03 04:06:06;;;;;;;2.2;2.2;;;;;;;4.0;100.0;102430;;;;
2023/01/03 04:07:01;;;;;;;2.2;2.2;;;;;;;4.0;100.0;102430;;;;
2023/01/03 04:08:00;;;;;;;2.2;2.2;;;;;;;4.1;100.0;102430;;;;
2023/01/03 04:09:00;;;;;;;2.2;2.2;;;;;;;4.1;100.0;102430;;;;
2023/01/03 04:10:00;;;;;;;2.2;2.2;;;;;;;4.2;100.0;102430;;;;
2023/01/03 04:11:07;;;;;;;2.2;2.2;;;;;;;4.2;100.0;102430;;;;
2023/01/03 04:12:00;;;;;;;2.2;2.2;;;;;;;4.1;100.0;102440;;;;
2023/01/03 04:13:00;;;;;;;2.2;2.2;;;;;;;4.1;100.0;102440;;;;
2023/01/03 04:14:00;;;;;;;2.2;2.2;;;;;;;4.1;100.0;102440;;;;
2023/01/03 04:15:01;;;;;;;2.2;2.2;;;;;;;4.1;100.0;102440;;;;
2023/01/03 04:16:01;;;;;;;2.2;2.2;;;;;;;4.0;100.0;102440;;;;
2023/01/03 04:17:00;;;;;;;2.2;2.2;;;;;;;4.0;100.0;102440;;;;
2023/01/03 04:18:01;;;;;;;2.2;2.2;;;;;;;4.0;100.0;102440;;;;
2023/01/03 04:19:00;;;;;;;2.2;2.2;;;;;;;4.0;100.0;102440;;;;
2023/01/03 04:20:00;;;;;;;2.2;2.2;;;;;;;4.1;100.0;102440;;;;
2023/01/03 04:21:00;;;;;;;2.2;2.2;;;;;;;4.1;100.0;102440;;;;
2023/01/03 04:22:00;;;;;;;2.2;2.2;;;;;;;4.1;100.0;102430;;;;
2023/01/03 04:23:00;;;;;;;2.2;2.2;;;;;;;4.1;100.0;102430;;;;
2023/01/03 04:24:00;;;;;;;2.2;2.2;;;;;;;4.0;100.0;102440;;;;
2023/01/03 04:25:00;;;;;;;2.2;2.2;;;;;;;4.0;100.0;102440;;;;
2023/01/03 04:26:00;;;;;;;2.2;2.2;;;;;;;4.0;100.0;102440;;;;
2023/01/03 04:27:00;;;;;;;2.2;2.2;;;;;;;4.0;100.0;102440;;;;
2023/01/03 04:28:00;;;;;;;2.2;2.2;;;;;;;4.0;100.0;102440;;;;
2023/01/03 04:29:00;;;;;;;2.2;2.2;;;;;;;4.0;100.0;102440;;;;
2023/01/03 04:30:00;;;;;;;2.1;2.1;;;;;;;3.9;100.0;102440;;;;
2023/01/03 04:31:00;;;;;;;2.1;2.1;;;;;;;3.9;100.0;102440;;;;
2023/01/03 04:32:00;;;;;;;2.1;2.1;;;;;;;3.9;100.0;102430;;;;
2023/01/03 04:33:04;;;;;;;2.1;2.1;;;;;;;3.9;100.0;102430;;;;
2023/01/03 04:34:00;;;;;;;2.1;2.1;;;;;;;3.9;100.0;102430;;;;
2023/01/03 04:35:00;;;;;;;2.1;2.1;;;;;;;3.9;100.0;102430;;;;
2023/01/03 04:36:00;;;;;;;2.1;2.1;;;;;;;3.9;100.0;102440;;;;
2023/01/03 04:37:00;;;;;;;2.1;2.1;;;;;;;3.9;100.0;102440;;;;
2023/01/03 04:38:00;;;;;;;2.1;2.1;;;;;;;3.9;100.0;102440;;;;
2023/01/03 04:39:00;;;;;;;2.1;2.1;;;;;;;3.9;100.0;102440;;;;
2023/01/03 04:40:00;;;;;;;2.1;2.1;;;;;;;3.9;100.0;102440;;;;
2023/01/03 04:41:04;;;;;;;2.1;2.1;;;;;;;3.9;100.0;102440;;;;
2023/01/03 04:42:00;;;;;;;2.1;2.1;;;;;;;3.9;100.0;102440;;;;
2023/01/03 04:44:00;;;;;;;2.1;2.1;;;;;;;3.9;100.0;102440;;;;
2023/01/03 04:45:00;;;;;;;2.1;2.1;;;;;;;3.9;100.0;102440;;;;
2023/01/03 04:46:00;;;;;;;2.1;2.1;;;;;;;3.9;100.0;102440;;;;
2023/01/03 04:47:00;;;;;;;2.1;2.1;;;;;;;3.9;100.0;102440;;;;
2023/01/03 04:48:00;;;;;;;2.1;2.1;;;;;;;3.8;100.0;102440;;;;
2023/01/03 04:49:00;;;;;;;2.3;2.3;;;;;;;3.8;100.0;102440;;;;
2023/01/03 04:50:00;;;;;;;2.3;2.3;;;;;;;3.8;100.0;102440;;;;
2023/01/03 04:51:00;;;;;;;2.3;2.3;;;;;;;3.8;100.0;102440;;;;
2023/01/03 04:52:00;;;;;;;2.3;2.3;;;;;;;3.8;100.0;102440;;;;
2023/01/03 04:53:00;;;;;;;2.3;2.3;;;;;;;3.8;100.0;102440;;;;
2023/01/03 04:54:01;;;;;;;2.3;2.3;;;;;;;3.9;100.0;102440;;;;
2023/01/03 04:55:00;;;;;;;2.3;2.3;;;;;;;3.9;100.0;102440;;;;
2023/01/03 04:56:00;;;;;;;2.3;2.3;;;;;;;3.8;100.0;102440;;;;
2023/01/03 04:57:00;;;;;;;2.3;2.3;;;;;;;3.8;100.0;102440;;;;
2023/01/03 04:58:00;;;;;;;2.3;2.3;;;;;;;3.8;100.0;102430;;;;
2023/01/03 04:59:00;;;;;;;2.3;2.3;;;;;;;3.8;100.0;102430;;;;
2023/01/03 05:00:00;;;;;;;2.3;2.3;;;;;;;3.8;100.0;102440;;;;
2023/01/03 05:01:01;;;;;;;2.3;2.3;;;;;;;3.8;100.0;102440;;;;
2023/01/03 05:02:00;;;;;;;2.3;2.3;;;;;;;3.9;100.0;102430;;;;
2023/01/03 05:03:00;;;;;;;2.3;2.3;;;;;;;3.9;100.0;102430;;;;
2023/01/03 05:04:00;;;;;;;2.3;2.3;;;;;;;3.9;100.0;102430;;;;
2023/01/03 05:05:00;;;;;;;2.3;2.3;;;;;;;3.9;100.0;102430;;;;
2023/01/03 05:06:02;;;;;;;2.3;2.3;;;;;;;3.9;100.0;102440;;;;
2023/01/03 05:07:00;;;;;;;2.3;2.3;;;;;;;3.9;100.0;102440;;;;
2023/01/03 05:08:02;;;;;;;2.3;2.3;;;;;;;3.9;100.0;102440;;;;
2023/01/03 05:09:00;;;;;;;2.0;2.0;;;;;;;3.9;100.0;102440;;;;
2023/01/03 05:10:00;;;;;;;2.0;2.0;;;;;;;4.0;100.0;102440;;;;
2023/01/03 05:11:00;;;;;;;2.0;2.0;;;;;;;4.0;100.0;102440;;;;
2023/01/03 05:12:00;;;;;;;2.0;2.0;;;;;;;4.0;100.0;102440;;;;
2023/01/03 05:13:00;;;;;;;2.0;2.0;;;;;;;4.0;100.0;102440;;;;
2023/01/03 05:14:00;;;;;;;2.0;2.0;;;;;;;4.1;100.0;102440;;;;
2023/01/03 05:15:00;;;;;;;2.0;2.0;;;;;;;4.1;100.0;102440;;;;
2023/01/03 05:16:04;;;;;;;2.0;2.0;;;;;;;4.1;100.0;102430;;;;
2023/01/03 05:17:00;;;;;;;2.0;2.0;;;;;;;4.1;100.0;102430;;;;
2023/01/03 05:18:00;;;;;;;2.0;2.0;;;;;;;4.1;100.0;102430;;;;
2023/01/03 05:19:00;;;;;;;2.0;2.0;;;;;;;4.1;100.0;102430;;;;
2023/01/03 05:26:02;;;;;;;2.0;2.0;;;;;;;4.1;100.0;102430;;;;
2023/01/03 05:27:01;;;;;;;2.0;2.0;;;;;;;4.1;100.0;102430;;;;
2023/01/03 05:28:00;;;;;;;2.0;2.0;;;;;;;4.1;100.0;102430;;;;
2023/01/03 05:29:00;;;;;;;1.9;1.9;;;;;;;4.1;100.0;102430;;;;
2023/01/03 05:30:00;;;;;;;1.9;1.9;;;;;;;4.1;100.0;102430;;;;
2023/01/03 05:31:00;;;;;;;1.9;1.9;;;;;;;4.1;100.0;102430;;;;
2023/01/03 05:32:00;;;;;;;1.9;1.9;;;;;;;4.1;100.0;102440;;;;
2023/01/03 05:33:00;;;;;;;1.9;1.9;;;;;;;4.1;100.0;102440;;;;
2023/01/03 05:34:00;;;;;;;1.9;1.9;;;;;;;4.1;100.0;102430;;;;
2023/01/03 05:35:00;;;;;;;1.9;1.9;;;;;;;4.1;100.0;102430;;;;
2023/01/03 05:36:00;;;;;;;1.9;1.9;;;;;;;4.2;100.0;102430;;;;
2023/01/03 05:37:00;;;;;;;1.9;1.9;;;;;;;4.2;100.0;102430;;;;
2023/01/03 05:38:00;;;;;;;1.9;1.9;;;;;;;4.4;100.0;102420;;;;
2023/01/03 05:39:00;;;;;;;1.9;1.9;;;;;;;4.4;100.0;102420;;;;
2023/01/03 05:40:00;;;;;;;1.9;1.9;;;;;;;4.3;100.0;102410;;;;
2023/01/03 05:41:00;;;;;;;1.9;1.9;;;;;;;4.3;100.0;102410;;;;
2023/01/03 05:42:00;;;;;;;1.9;1.9;;;;;;;4.3;100.0;102410;;;;
2023/01/03 05:43:00;;;;;;;1.9;1.9;;;;;;;4.3;100.0;102410;;;;
2023/01/03 05:44:00;;;;;;;1.9;1.9;;;;;;;4.3;100.0;102420;;;;
2023/01/03 05:45:00;;;;;;;1.9;1.9;;;;;;;4.3;100.0;102420;;;;
2023/01/03 05:46:00;;;;;;;1.9;1.9;;;;;;;4.4;100.0;102420;;;;
2023/01/03 05:47:01;;;;;;;1.9;1.9;;;;;;;4.4;100.0;102420;;;;
2023/01/03 05:48:00;;;;;;;1.9;1.9;;;;;;;4.3;100.0;102420;;;;
2023/01/03 05:49:00;;;;;;;2.0;2.0;;;;;;;4.3;100.0;102420;;;;
2023/01/03 05:50:00;;;;;;;2.0;2.0;;;;;;;4.3;100.0;102420;;;;
2023/01/03 05:51:00;;;;;;;2.0;2.0;;;;;;;4.3;100.0;102420;;;;
2023/01/03 05:52:00;;;;;;;2.0;2.0;;;;;;;4.3;100.0;102420;;;;
2023/01/03 05:53:00;;;;;;;2.0;2.0;;;;;;;4.3;100.0;102420;;;;
2023/01/03 05:54:00;;;;;;;2.0;2.0;;;;;;;4.2;100.0;102420;;;;
2023/01/03 05:55:00;;;;;;;2.0;2.0;;;;;;;4.2;100.0;102420;;;;
2023/01/03 05:56:04;;;;;;;2.0;2.0;;;;;;;4.2;100.0;102420;;;;
2023/01/03 05:57:00;;;;;;;2.0;2.0;;;;;;;4.2;100.0;102420;;;;
2023/01/03 05:58:00;;;;;;;2.0;2.0;;;;;;;4.2;100.0;102420;;;;
2023/01/03 05:59:00;;;;;;;2.0;2.0;;;;;;;4.2;100.0;102420;;;;
2023/01/03 06:00:00;;;;;;;2.0;2.0;;;;;;;4.2;100.0;102420;;;;
2023/01/03 06:01:06;;;;;;;2.0;2.0;;;;;;;4.2;100.0;102420;;;;
2023/01/03 06:02:00;;;;;;;2.0;2.0;;;;;;;4.2;100.0;102420;;;;
2023/01/03 06:03:00;;;;;;;2.0;2.0;;;;;;;4.2;100.0;102420;;;;
2023/01/03 06:04:00;;;;;;;2.0;2.0;;;;;;;4.1;100.0;102420;;;;
2023/01/03 06:05:00;;;;;;;2.0;2.0;;;;;;;4.1;100.0;102420;;;;
2023/01/03 06:06:01;;;;;;;2.0;2.0;;;;;;;4.1;100.0;102410;;;;
2023/01/03 06:07:00;;;;;;;2.0;2.0;;;;;;;4.1;100.0;102410;;;;
2023/01/03 06:08:01;;;;;;;2.0;2.0;;;;;;;4.2;100.0;102410;;;;
2023/01/03 06:09:00;;;;;;;2.1;2.1;;;;;;;4.2;100.0;102410;;;;
2023/01/03 06:10:00;;;;;;;2.1;2.1;;;;;;;4.2;100.0;102410;;;;
2023/01/03 06:11:04;;;;;;;2.1;2.1;;;;;;;4.2;100.0;102410;;;;
2023/01/03 06:12:00;;;;;;;2.1;2.1;;;;;;;4.1;100.0;102400;;;;
2023/01/03 06:13:00;;;;;;;2.1;2.1;;;;;;;4.1;100.0;102400;;;;
2023/01/03 06:14:00;;;;;;;2.1;2.1;;;;;;;4.1;100.0;102400;;;;
2023/01/03 06:15:00;;;;;;;2.1;2.1;;;;;;;4.1;100.0;102400;;;;
2023/01/03 06:18:01;;;;;;;2.1;2.1;;;;;;;4.0;100.0;102410;;;;
2023/01/03 06:19:00;;;;;;;2.1;2.1;;;;;;;4.0;100.0;102410;;;;
2023/01/03 06:20:00;;;;;;;2.1;2.1;;;;;;;4.0;100.0;102420;;;;
2023/01/03 06:21:02;;;;;;;2.1;2.1;;;;;;;4.0;100.0;102420;;;;
2023/01/03 06:22:03;;;;;;;2.1;2.1;;;;;;;4.1;100.0;102420;;;;
2023/01/03 06:23:00;;;;;;;2.1;2.1;;;;;;;4.1;100.0;102420;;;;
2023/01/03 06:24:00;;;;;;;2.1;2.1;;;;;;;4.1;100.0;102410;;;;
2023/01/03 06:25:00;;;;;;;2.1;2.1;;;;;;;4.1;100.0;102410;;;;
2023/01/03 06:26:01;;;;;;;2.1;2.1;;;;;;;4.1;100.0;102410;;;;
2023/01/03 06:27:00;;;;;;;2.1;2.1;;;;;;;4.1;100.0;102410;;;;
2023/01/03 06:28:00;;;;;;;2.1;2.1;;;;;;;4.0;100.0;102400;;;;
2023/01/03 06:29:00;;;;;;;2.0;2.0;;;;;;;4.0;100.0;102400;;;;
2023/01/03 06:30:00;;;;;;;2.0;2.0;;;;;;;4.0;100.0;102400;;;;
2023/01/03 06:31:00;;;;;;;2.0;2.0;;;;;;;4.0;100.0;102400;;;;
2023/01/03 06:32:09;;;;;;;2.0;2.0;;;;;;;4.1;100.0;102390;;;;
2023/01/03 06:33:00;;;;;;;2.0;2.0;;;;;;;4.1;100.0;102390;;;;
2023/01/03 06:34:00;;;;;;;2.0;2.0;;;;;;;4.1;100.0;102390;;;;
2023/01/03 06:35:00;;;;;;;2.0;2.0;;;;;;;4.1;100.0;102390;;;;
2023/01/03 06:36:00;;;;;;;2.0;2.0;;;;;;;4.0;100.0;102390;;;;
2023/01/03 06:37:00;;;;;;;2.0;2.0;;;;;;;4.0;100.0;102390;;;;
2023/01/03 06:38:00;;;;;;;2.0;2.0;;;;;;;4.0;100.0;102390;;;;
2023/01/03 06:39:00;;;;;;;2.0;2.0;;;;;;;4.0;100.0;102390;;;;
2023/01/03 06:40:00;;;;;;;2.0;2.0;;;;;;;4.0;100.0;102390;;;;
2023/01/03 06:41:00;;;;;;;2.0;2.0;;;;;;;4.0;100.0;102390;;;;
2023/01/03 06:42:38;;;;;;;2.0;2.0;;;;;;;4.0;100.0;102390;;;;
2023/01/03 06:43:00;;;;;;;2.0;2.0;;;;;;;4.0;100.0;102390;;;;
2023/01/03 06:44:00;;;;;;;2.0;2.0;;;;;;;4.1;100.0;102390;;;;
2023/01/03 06:54:00;;;;;;;2.1;2.1;;;;;;;4.1;100.0;102380;;;;
2023/01/03 06:55:00;;;;;;;2.1;2.1;;;;;;;4.1;100.0;102380;;;;
2023/01/03 06:56:00;;;;;;;2.1;2.1;;;;;;;4.1;100.0;102380;;;;
2023/01/03 06:57:00;;;;;;;2.1;2.1;;;;;;;4.1;100.0;102380;;;;
2023/01/03 06:58:00;;;;;;;2.1;2.1;;;;;;;4.1;100.0;102380;;;;
2023/01/03 06:59:00;;;;;;;2.1;2.1;;;;;;;4.1;100.0;102380;;;;
2023/01/03 07:00:00;;;;;;;2.1;2.1;;;;;;;4.0;100.0;102380;;;;
2023/01/03 07:01:02;;;;;;;2.1;2.1;;;;;;;4.0;100.0;102380;;;;
2023/01/03 07:02:00;;;;;;;2.1;2.1;;;;;;;4.1;100.0;102380;;;;
2023/01/03 07:03:07;;;;;;;2.1;2.1;;;;;;;4.1;100.0;102380;;;;
2023/01/03 07:04:00;;;;;;;2.1;2.1;;;;;;;4.0;100.0;102380;;;;
2023/01/03 07:05:00;;;;;;;2.1;2.1;;;;;;;4.0;100.0;102380;;;;
2023/01/03 07:06:00;;;;;;;2.1;2.1;;;;;;;4.0;100.0;102390;;;;
2023/01/03 07:07:00;;;;;;;2.1;2.1;;;;;;;4.0;100.0;102390;;;;
2023/01/03 07:08:00;;;;;;;2.1;2.1;;;;;;;4.1;100.0;102390;;;;
2023/01/03 07:09:00;;;;;;;1.9;1.9;;;;;;;4.1;100.0;102390;;;;
2023/01/03 07:10:00;;;;;;;1.9;1.9;;;;;;;4.2;100.0;102390;;;;